createdAt,value
2019-04-27T00:04:55.998Z,6.27
2019-04-27T00:07:29.645Z,7.00
2019-04-27T00:09:57.388Z,7.43
2019-04-27T00:12:26.484Z,7.60
2019-04-27T00:14:54.416Z,7.50
2019-04-27T00:17:45.768Z,8.10
2019-04-27T00:20:23.833Z,8.07
2019-04-27T00:23:03.704Z,7.67
2019-04-27T00:25:29.546Z,7.83
2019-04-27T00:27:55.394Z,7.83
2019-04-27T00:30:21.242Z,8.23
2019-04-27T00:32:47.312Z,7.67
2019-04-27T00:35:15.110Z,8.93
2019-04-27T00:37:44.804Z,8.97
2019-04-27T00:40:15.584Z,7.93
2019-04-27T00:42:41.507Z,7.37
2019-04-27T00:45:07.450Z,8.30
2019-04-27T00:47:35.024Z,8.27
2019-04-27T00:50:01.035Z,8.10
2019-04-27T00:52:26.878Z,7.13
2019-04-27T00:54:53.889Z,8.43
2019-04-27T00:57:40.090Z,8.47
2019-04-27T01:00:24.720Z,8.60
2019-04-27T01:02:55.550Z,8.40
2019-04-27T01:05:26.205Z,8.00
2019-04-27T01:07:53.630Z,8.40
2019-04-27T01:10:20.206Z,8.77
2019-04-27T01:12:46.048Z,9.00
2019-04-27T01:15:13.593Z,9.07
2019-04-27T01:17:39.660Z,9.27
2019-04-27T01:20:05.905Z,10.30
2019-04-27T01:22:31.760Z,9.87
2019-04-27T01:24:59.362Z,9.23
2019-04-27T01:27:43.848Z,8.77
2019-04-27T01:30:12.014Z,10.90
2019-04-27T01:32:39.241Z,9.80
2019-04-27T01:35:05.761Z,11.27
2019-04-27T01:37:31.681Z,10.57
2019-04-27T01:39:59.043Z,10.10
2019-04-27T01:42:25.101Z,11.20
2019-04-27T01:44:51.224Z,10.80
2019-04-27T01:47:18.658Z,11.53
2019-04-27T01:49:45.080Z,12.90
2019-04-27T01:52:10.936Z,11.67
2019-04-27T01:54:36.777Z,11.53
2019-04-27T01:57:04.287Z,12.97
2019-04-27T01:59:30.195Z,12.67
2019-04-27T02:02:00.486Z,16.00
2019-04-27T02:04:29.420Z,11.97
2019-04-27T02:06:58.994Z,12.67
2019-04-27T02:09:25.022Z,12.20
2019-04-27T02:11:50.986Z,11.67
2019-04-27T02:14:19.621Z,11.50
2019-04-27T02:16:45.971Z,12.27
2019-04-27T02:19:11.823Z,11.97
2019-04-27T02:21:39.283Z,11.63
2019-04-27T02:24:05.583Z,11.87
2019-04-27T02:26:31.432Z,10.07
2019-04-27T02:29:18.877Z,10.07
2019-04-27T02:31:55.557Z,8.47
2019-04-27T02:34:30.181Z,8.60
2019-04-27T02:36:59.525Z,9.00
2019-04-27T02:39:24.612Z,8.70
2019-04-27T02:41:51.923Z,8.57
2019-04-27T02:44:20.141Z,8.17
2019-04-27T02:46:46.039Z,8.23
2019-04-27T02:49:12.004Z,8.30
2019-04-27T02:51:43.077Z,8.43
2019-04-27T02:54:11.995Z,8.33
2019-04-27T02:56:36.752Z,7.73
2019-04-27T02:59:02.873Z,7.70
2019-04-27T03:01:30.851Z,7.47
2019-04-27T03:03:56.780Z,6.97
2019-04-27T03:06:22.715Z,7.27
2019-04-27T03:08:52.698Z,7.50
2019-04-27T03:11:16.654Z,7.37
2019-04-27T03:14:01.130Z,6.67
2019-04-27T03:16:31.504Z,6.70
2019-04-27T03:19:18.797Z,6.13
2019-04-27T03:22:02.206Z,6.07
2019-04-27T03:24:46.517Z,5.80
2019-04-27T03:27:14.671Z,5.20
2019-04-27T03:29:41.008Z,5.57
2019-04-27T03:32:06.852Z,5.53
2019-04-27T03:34:32.812Z,5.17
2019-04-27T03:36:59.783Z,5.47
2019-04-27T03:39:25.882Z,5.57
2019-04-27T03:41:52.882Z,5.53
2019-04-27T03:44:19.299Z,5.80
2019-04-27T03:46:45.287Z,6.20
2019-04-27T03:49:27.342Z,6.63
2019-04-27T03:51:43.589Z,7.20
2019-04-27T03:54:11.614Z,7.33
2019-04-27T03:56:45.315Z,6.70
2019-04-27T03:59:13.050Z,6.50
2019-04-27T04:01:39.729Z,7.97
2019-04-27T04:04:05.741Z,7.10
2019-04-27T04:06:31.637Z,7.77
2019-04-27T04:09:00.187Z,7.67
2019-04-27T04:11:42.587Z,8.33
2019-04-27T04:14:13.124Z,8.50
2019-04-27T04:16:53.092Z,8.47
2019-04-27T04:19:19.672Z,7.67
2019-04-27T04:21:45.784Z,7.23
2019-04-27T04:24:12.302Z,7.23
2019-04-27T04:26:40.248Z,6.50
2019-04-27T04:29:06.371Z,7.20
2019-04-27T04:31:33.092Z,7.70
2019-04-27T04:33:59.923Z,7.43
2019-04-27T04:36:25.987Z,8.57
2019-04-27T04:38:51.831Z,8.87
2019-04-27T04:41:20.033Z,7.80
2019-04-27T04:44:06.279Z,8.50
2019-04-27T04:46:50.672Z,9.00
2019-04-27T04:49:16.591Z,9.00
2019-04-27T04:51:42.460Z,10.77
2019-04-27T04:54:09.522Z,12.00
2019-04-27T04:56:35.644Z,11.23
2019-04-27T04:59:01.582Z,11.30
2019-04-27T05:01:29.659Z,11.43
2019-04-27T05:03:55.162Z,11.97
2019-04-27T05:06:21.035Z,12.73
2019-04-27T05:08:46.991Z,13.47
2019-04-27T05:11:12.823Z,12.47
2019-04-27T05:13:39.353Z,13.17
2019-04-27T05:16:05.430Z,13.37
2019-04-27T05:18:31.298Z,13.20
2019-04-27T05:21:11.380Z,13.17
2019-04-27T05:23:38.807Z,13.33
2019-04-27T05:26:04.802Z,14.00
2019-04-27T05:28:30.739Z,13.23
2019-04-27T05:30:56.744Z,14.20
2019-04-27T05:33:23.455Z,16.10
2019-04-27T05:35:49.630Z,15.57
2019-04-27T05:38:16.183Z,14.80
2019-04-27T05:40:42.895Z,14.87
2019-04-27T05:43:10.946Z,15.43
2019-04-27T05:46:09.229Z,15.23
2019-04-27T05:48:38.823Z,14.73
2019-04-27T05:51:05.532Z,15.50
2019-04-27T05:53:33.785Z,16.13
2019-04-27T05:56:00.402Z,14.30
2019-04-27T05:58:26.387Z,15.83
2019-04-27T06:00:52.272Z,14.83
2019-04-27T06:03:18.633Z,14.80
2019-04-27T06:05:45.979Z,15.30
2019-04-27T06:08:11.982Z,14.33
2019-04-27T06:10:38.693Z,14.13
2019-04-27T06:13:04.784Z,14.60
2019-04-27T06:15:30.655Z,14.60
2019-04-27T06:17:56.475Z,14.97
2019-04-27T06:20:22.355Z,13.73
2019-04-27T06:22:48.942Z,14.03
2019-04-27T06:25:15.015Z,15.33
2019-04-27T06:27:40.951Z,15.20
2019-04-27T06:30:09.203Z,14.97
2019-04-27T06:32:34.961Z,14.40
2019-04-27T06:35:00.810Z,14.57
2019-04-27T06:37:29.097Z,14.70
2019-04-27T06:39:54.507Z,17.87
2019-04-27T06:42:20.785Z,17.73
2019-04-27T06:44:46.920Z,17.63
2019-04-27T06:47:12.867Z,17.23
2019-04-27T06:49:39.583Z,18.97
2019-04-27T06:52:05.604Z,17.30
2019-04-27T06:54:31.471Z,17.77
2019-04-27T06:56:59.050Z,17.80
2019-04-27T06:59:25.060Z,19.20
2019-04-27T07:01:50.882Z,18.07
2019-04-27T07:04:16.757Z,17.10
2019-04-27T07:06:53.203Z,18.20
2019-04-27T07:09:10.734Z,17.10
2019-04-27T07:11:36.859Z,17.33
2019-04-27T07:14:02.802Z,17.37
2019-04-27T07:16:29.417Z,18.83
2019-04-27T07:18:55.668Z,19.47
2019-04-27T07:21:24.921Z,20.70
2019-04-27T07:23:59.084Z,17.13
2019-04-27T07:26:25.800Z,18.53
2019-04-27T07:28:51.736Z,17.20
2019-04-27T07:31:19.247Z,20.67
2019-04-27T07:33:45.626Z,18.10
2019-04-27T07:36:13.982Z,15.93
2019-04-27T07:38:40.075Z,16.93
2019-04-27T07:41:05.977Z,17.50
2019-04-27T07:43:49.423Z,17.43
2019-04-27T07:46:15.487Z,19.33
2019-04-27T07:48:41.317Z,17.77
2019-04-27T07:51:08.941Z,19.07
2019-04-27T07:53:35.089Z,21.33
2019-04-27T07:56:01.411Z,18.53
2019-04-27T07:58:27.389Z,18.87
2019-04-27T08:00:53.251Z,19.73
2019-04-27T08:03:19.621Z,18.77
2019-04-27T08:05:45.556Z,19.53
2019-04-27T08:08:11.495Z,19.70
2019-04-27T08:10:39.085Z,19.57
2019-04-27T08:13:05.159Z,20.50
2019-04-27T08:15:31.250Z,20.73
2019-04-27T08:17:59.030Z,20.77
2019-04-27T08:20:24.842Z,22.67
2019-04-27T08:22:50.690Z,23.67
2019-04-27T08:25:16.540Z,21.03
2019-04-27T08:27:44.407Z,21.97
2019-04-27T08:30:19.426Z,21.13
2019-04-27T08:32:50.213Z,22.23
2019-04-27T08:35:16.071Z,21.60
2019-04-27T08:37:41.947Z,21.33
2019-04-27T08:40:10.172Z,21.53
2019-04-27T08:42:36.003Z,23.80
2019-04-27T08:45:02.759Z,22.20
2019-04-27T08:47:29.311Z,22.87
2019-04-27T08:49:55.795Z,22.87
2019-04-27T08:52:21.651Z,24.00
2019-04-27T08:54:49.185Z,21.43
2019-04-27T08:57:15.323Z,21.90
2019-04-27T08:59:41.166Z,22.63
2019-04-27T09:02:08.634Z,21.23
2019-04-27T09:04:34.777Z,20.97
2019-04-27T09:07:19.796Z,22.60
2019-04-27T09:09:47.635Z,22.47
2019-04-27T09:12:24.391Z,22.95
2019-04-27T09:14:55.017Z,23.13
2019-04-27T09:17:22.883Z,22.50
2019-04-27T09:20:02.315Z,22.07
2019-04-27T09:22:28.928Z,20.95
2019-04-27T09:24:54.913Z,19.27
2019-04-27T09:27:20.777Z,17.70
2019-04-27T09:29:46.802Z,18.90
2019-04-27T09:32:12.751Z,19.23
2019-04-27T09:34:38.971Z,17.00
2019-04-27T09:37:06.082Z,16.55
2019-04-27T09:39:32.063Z,14.20
2019-04-27T09:41:57.979Z,14.40
2019-04-27T09:44:23.908Z,14.18
2019-04-27T09:46:49.849Z,16.30
2019-04-27T09:49:15.832Z,14.65
2019-04-27T09:51:45.877Z,12.20
2019-04-27T09:54:11.719Z,11.78
2019-04-27T09:56:37.607Z,12.37
2019-04-27T09:59:03.500Z,11.90
2019-04-27T10:01:29.387Z,11.85
2019-04-27T10:03:56.618Z,13.53
2019-04-27T10:06:22.785Z,10.45
2019-04-27T10:08:48.651Z,10.53
2019-04-27T10:11:16.237Z,11.10
2019-04-27T10:13:42.267Z,14.00
2019-04-27T10:16:08.204Z,12.30
2019-04-27T10:18:34.052Z,11.80
2019-04-27T10:21:02.172Z,11.90
2019-04-27T10:23:27.640Z,12.37
2019-04-27T10:25:53.489Z,12.50
2019-04-27T10:28:19.712Z,13.05
2019-04-27T10:30:45.824Z,12.60
2019-04-27T10:33:11.951Z,13.03
2019-04-27T10:35:37.794Z,13.22
2019-04-27T10:38:03.670Z,13.68
2019-04-27T10:40:29.654Z,13.05
2019-04-27T10:42:56.078Z,14.15
2019-04-27T10:45:22.205Z,12.93
2019-04-27T10:47:49.584Z,12.55
2019-04-27T10:50:16.568Z,12.93
2019-04-27T10:52:52.874Z,12.68
2019-04-27T10:55:10.324Z,11.48
2019-04-27T10:57:36.143Z,10.28
2019-04-27T11:00:06.786Z,11.22
2019-04-27T11:02:32.760Z,10.25
2019-04-27T11:05:30.950Z,15.30
2019-04-27T11:07:56.446Z,13.25
2019-04-27T11:10:23.220Z,11.63
2019-04-27T11:12:49.114Z,10.28
2019-04-27T11:15:16.331Z,11.22
2019-04-27T11:17:42.408Z,9.75
2019-04-27T11:20:08.441Z,11.40
2019-04-27T11:22:36.201Z,10.50
2019-04-27T11:25:06.251Z,9.58
2019-04-27T11:27:32.268Z,9.55
2019-04-27T11:29:58.141Z,10.08
2019-04-27T11:32:24.013Z,10.32
2019-04-27T11:35:03.522Z,10.28
2019-04-27T11:37:37.088Z,10.82
2019-04-27T11:40:05.358Z,11.15
2019-04-27T11:42:31.259Z,10.63
2019-04-27T11:44:58.314Z,8.93
2019-04-27T11:47:24.462Z,8.83
2019-04-27T11:49:50.477Z,8.20
2019-04-27T11:52:16.332Z,8.33
2019-04-27T11:54:42.273Z,7.20
2019-04-27T11:57:08.173Z,8.53
2019-04-27T11:59:34.142Z,6.83
2019-04-27T12:02:00.125Z,7.85
2019-04-27T12:04:26.368Z,8.80
2019-04-27T12:06:52.343Z,9.68
2019-04-27T12:09:18.210Z,8.33
2019-04-27T12:11:44.155Z,8.15
2019-04-27T12:14:10.211Z,10.63
2019-04-27T12:16:36.261Z,8.30
2019-04-27T12:19:02.319Z,9.00
2019-04-27T12:21:28.176Z,7.97
2019-04-27T12:23:54.045Z,8.50
2019-04-27T12:26:27.637Z,8.80
2019-04-27T12:28:53.619Z,8.23
2019-04-27T12:31:21.359Z,8.33
2019-04-27T12:33:47.244Z,9.50
2019-04-27T12:36:13.251Z,8.20
2019-04-27T12:38:39.202Z,6.87
2019-04-27T12:41:06.641Z,7.70
2019-04-27T12:43:32.732Z,8.10
2019-04-27T12:45:58.717Z,7.83
2019-04-27T12:48:24.615Z,6.85
2019-04-27T12:50:50.533Z,7.60
2019-04-27T12:53:47.642Z,7.08
2019-04-27T12:56:03.832Z,7.67
2019-04-27T12:58:31.670Z,6.83
2019-04-27T13:00:59.451Z,7.35
2019-04-27T13:03:26.186Z,6.60
2019-04-27T13:05:52.391Z,6.15
2019-04-27T13:08:18.295Z,5.42
2019-04-27T13:10:44.177Z,5.45
2019-04-27T13:13:10.047Z,5.33
2019-04-27T13:15:35.947Z,5.45
2019-04-27T13:18:01.775Z,5.87
2019-04-27T13:20:27.781Z,5.65
2019-04-27T13:22:54.931Z,5.60
2019-04-27T13:25:21.208Z,8.18
2019-04-27T13:27:48.126Z,6.40
2019-04-27T13:30:16.516Z,7.67
2019-04-27T13:32:42.393Z,5.87
2019-04-27T13:35:09.006Z,6.45
2019-04-27T13:37:39.387Z,6.00
2019-04-27T13:40:09.446Z,6.85
2019-04-27T13:42:35.879Z,5.53
2019-04-27T13:45:05.946Z,6.60
2019-04-27T13:47:34.196Z,5.37
2019-04-27T13:50:07.736Z,5.58
2019-04-27T13:52:33.682Z,4.75
2019-04-27T13:54:59.868Z,5.12
2019-04-27T13:57:26.618Z,4.87
2019-04-27T13:59:52.613Z,5.67
2019-04-27T14:02:19.136Z,6.75
2019-04-27T14:04:46.349Z,6.58
2019-04-27T14:07:12.340Z,6.95
2019-04-27T14:09:39.230Z,4.90
2019-04-27T14:12:07.328Z,4.83
2019-04-27T14:14:33.388Z,4.85
2019-04-27T14:16:59.297Z,4.83
2019-04-27T14:19:25.183Z,5.75
2019-04-27T14:21:51.040Z,5.17
2019-04-27T14:24:27.437Z,4.83
2019-04-27T14:26:44.645Z,4.58
2019-04-27T14:29:10.545Z,5.72
2019-04-27T14:31:36.486Z,5.53
2019-04-27T14:34:02.474Z,4.95
2019-04-27T14:36:29.199Z,4.55
2019-04-27T14:38:55.271Z,5.22
2019-04-27T14:41:21.256Z,4.33
2019-04-27T14:43:49.896Z,4.90
2019-04-27T14:46:14.884Z,4.28
2019-04-27T14:48:40.848Z,5.53
2019-04-27T14:51:06.686Z,4.75
2019-04-27T14:53:32.578Z,4.92
2019-04-27T14:55:58.576Z,4.83
2019-04-27T14:58:24.570Z,4.53
2019-04-27T15:00:50.708Z,4.92
2019-04-27T15:03:30.516Z,4.87
2019-04-27T15:05:56.365Z,4.28
2019-04-27T15:08:22.256Z,4.92
2019-04-27T15:10:48.333Z,3.90
2019-04-27T15:13:14.267Z,4.30
2019-04-27T15:15:40.144Z,5.45
2019-04-27T15:18:05.992Z,3.92
2019-04-27T15:20:39.708Z,4.85
2019-04-27T15:23:04.561Z,7.42
2019-04-27T15:25:35.029Z,7.35
2019-04-27T15:28:07.372Z,4.70
2019-04-27T15:30:51.213Z,4.30
2019-04-27T15:33:35.383Z,4.20
2019-04-27T15:36:14.695Z,5.15
2019-04-27T15:38:43.017Z,4.08
2019-04-27T15:41:14.724Z,3.40
2019-04-27T15:43:42.478Z,3.27
2019-04-27T15:46:08.389Z,3.72
2019-04-27T15:48:34.338Z,4.37
2019-04-27T15:51:03.305Z,3.87
2019-04-27T15:53:28.420Z,4.70
2019-04-27T15:56:00.015Z,6.53
2019-04-27T15:58:24.964Z,4.17
2019-04-27T16:00:56.227Z,4.55
2019-04-27T16:03:18.438Z,4.47
2019-04-27T16:05:44.387Z,3.80
2019-04-27T16:08:15.373Z,3.60
2019-04-27T16:10:40.272Z,3.75
2019-04-27T16:13:07.243Z,3.45
2019-04-27T16:15:33.640Z,3.33
2019-04-27T16:17:59.589Z,3.02
2019-04-27T16:20:30.115Z,3.27
2019-04-27T16:22:56.833Z,3.70
2019-04-27T16:25:23.544Z,4.55
2019-04-27T16:27:49.051Z,5.05
2019-04-27T16:30:18.028Z,3.92
2019-04-27T16:32:44.449Z,5.47
2019-04-27T16:35:14.108Z,5.10
2019-04-27T16:37:57.575Z,5.25
2019-04-27T16:40:25.636Z,4.92
2019-04-27T16:42:54.215Z,4.05
2019-04-27T16:45:22.816Z,5.15
2019-04-27T16:47:48.070Z,4.67
2019-04-27T16:50:14.343Z,4.92
2019-04-27T16:52:40.381Z,3.45
2019-04-27T16:55:08.234Z,4.50
2019-04-27T16:57:37.464Z,4.20
2019-04-27T17:00:08.565Z,4.65
2019-04-27T17:02:34.435Z,5.58
2019-04-27T17:05:00.439Z,10.90
2019-04-27T17:07:31.700Z,6.42
2019-04-27T17:09:54.187Z,5.53
2019-04-27T17:12:23.733Z,6.10
2019-04-27T17:14:50.031Z,6.80
2019-04-27T17:17:23.561Z,6.95
2019-04-27T17:19:51.960Z,6.55
2019-04-27T17:22:18.315Z,6.30
2019-04-27T17:24:47.357Z,8.50
2019-04-27T17:27:16.252Z,5.28
2019-04-27T17:29:43.533Z,6.30
2019-04-27T17:32:11.526Z,5.00
2019-04-27T17:34:37.573Z,5.17
2019-04-27T17:37:03.743Z,5.87
2019-04-27T17:39:29.811Z,5.37
2019-04-27T17:41:58.222Z,5.62
2019-04-27T17:44:23.759Z,4.90
2019-04-27T17:46:51.188Z,5.05
2019-04-27T17:49:18.899Z,5.70
2019-04-27T17:51:45.148Z,6.30
2019-04-27T17:54:11.439Z,5.45
2019-04-27T17:56:48.350Z,4.78
2019-04-27T17:59:05.391Z,5.35
2019-04-27T18:01:32.062Z,6.70
2019-04-27T18:04:00.017Z,6.47
2019-04-27T18:06:27.861Z,6.12
2019-04-27T18:08:55.013Z,5.90
2019-04-27T18:11:21.760Z,5.22
2019-04-27T18:13:48.759Z,5.45
2019-04-27T18:16:14.748Z,4.80
2019-04-27T18:18:45.277Z,5.70
2019-04-27T18:21:12.076Z,5.83
2019-04-27T18:23:39.928Z,5.90
2019-04-27T18:26:07.734Z,4.95
2019-04-27T18:28:35.498Z,5.92
2019-04-27T18:31:03.327Z,5.40
2019-04-27T18:33:32.765Z,5.95
2019-04-27T18:36:05.000Z,5.75
2019-04-27T18:38:24.753Z,5.80
2019-04-27T18:40:50.615Z,5.60
2019-04-27T18:43:18.574Z,5.62
2019-04-27T18:45:45.130Z,6.10
2019-04-27T18:48:14.830Z,5.78
2019-04-27T18:50:59.194Z,6.05
2019-04-27T18:53:32.834Z,6.20
2019-04-27T18:56:04.862Z,6.45
2019-04-27T18:58:26.480Z,7.15
2019-04-27T19:00:52.498Z,7.58
2019-04-27T19:03:18.433Z,6.83
2019-04-27T19:05:44.494Z,6.85
2019-04-27T19:08:10.336Z,7.20
2019-04-27T19:10:36.178Z,5.62
2019-04-27T19:13:02.051Z,6.03
2019-04-27T19:15:28.571Z,5.35
2019-04-27T19:17:54.623Z,4.90
2019-04-27T19:20:20.452Z,4.40
2019-04-27T19:22:46.314Z,5.67
2019-04-27T19:25:14.352Z,3.70
2019-04-27T19:27:58.216Z,3.30
2019-04-27T19:30:38.347Z,3.60
2019-04-27T19:33:04.236Z,2.33
2019-04-27T19:35:30.108Z,3.00
2019-04-27T19:37:55.961Z,2.20
2019-04-27T19:40:21.784Z,3.47
2019-04-27T19:42:48.648Z,3.50
2019-04-27T19:45:14.754Z,2.75
2019-04-27T19:47:40.562Z,2.95
2019-04-27T19:50:06.896Z,2.62
2019-04-27T19:52:32.870Z,2.45
2019-04-27T19:55:00.375Z,2.50
2019-04-27T19:57:34.918Z,2.20
2019-04-27T19:59:56.127Z,2.33
2019-04-27T20:02:21.954Z,2.42
2019-04-27T20:04:50.512Z,2.58
2019-04-27T20:07:18.195Z,2.45
2019-04-27T20:09:47.851Z,2.43
2019-04-27T20:12:13.957Z,2.98
2019-04-27T20:14:54.745Z,2.55
2019-04-27T20:17:22.281Z,2.20
2019-04-27T20:19:48.353Z,2.43
2019-04-27T20:22:14.262Z,2.80
2019-04-27T20:24:41.488Z,2.22
2019-04-27T20:27:08.380Z,1.90
2019-04-27T20:29:34.823Z,2.30
2019-04-27T20:32:01.218Z,2.37
2019-04-27T20:34:27.913Z,2.73
2019-04-27T20:36:53.978Z,3.40
2019-04-27T20:39:20.008Z,4.80
2019-04-27T20:41:45.932Z,5.30
2019-04-27T20:44:12.738Z,4.83
2019-04-27T20:46:38.923Z,6.08
2019-04-27T20:49:06.784Z,6.40
2019-04-27T20:51:53.190Z,3.47
2019-04-27T20:54:21.038Z,4.40
2019-04-27T20:56:46.870Z,3.13
2019-04-27T20:59:12.704Z,3.37
2019-04-27T21:01:38.751Z,4.63
2019-04-27T21:04:04.792Z,2.53
2019-04-27T21:06:35.166Z,2.40
2019-04-27T21:09:03.088Z,6.90
2019-04-27T21:11:30.892Z,4.37
2019-04-27T21:13:57.039Z,2.93
2019-04-27T21:16:23.286Z,3.07
2019-04-27T21:18:51.348Z,2.97
2019-04-27T21:21:16.846Z,2.70
2019-04-27T21:23:42.695Z,2.47
2019-04-27T21:26:08.619Z,3.33
2019-04-27T21:28:34.525Z,2.93
2019-04-27T21:31:00.367Z,2.53
2019-04-27T21:33:26.250Z,3.40
2019-04-27T21:35:52.197Z,2.80
2019-04-27T21:38:18.042Z,2.90
2019-04-27T21:40:43.982Z,2.40
2019-04-27T21:43:11.354Z,2.40
2019-04-27T21:45:37.411Z,2.40
2019-04-27T21:48:03.275Z,2.60
2019-04-27T21:50:31.246Z,2.70
2019-04-27T21:53:04.718Z,3.10
2019-04-27T21:55:32.585Z,3.20
2019-04-27T21:57:58.724Z,2.47
2019-04-27T22:00:32.437Z,2.30
2019-04-27T22:02:58.311Z,2.63
2019-04-27T22:05:24.155Z,2.60
2019-04-27T22:07:49.994Z,3.40
2019-04-27T22:10:15.969Z,2.80
2019-04-27T22:12:41.829Z,2.63
2019-04-27T22:15:07.671Z,2.97
2019-04-27T22:17:33.503Z,2.60
2019-04-27T22:19:59.363Z,2.73
2019-04-27T22:22:31.436Z,2.60
2019-04-27T22:25:05.151Z,2.60
2019-04-27T22:27:30.986Z,3.57
2019-04-27T22:29:56.816Z,2.50
2019-04-27T22:32:22.656Z,3.17
2019-04-27T22:34:48.515Z,2.60
2019-04-27T22:37:14.367Z,2.80
2019-04-27T22:39:42.211Z,2.63
2019-04-27T22:42:20.690Z,2.77
2019-04-27T22:44:48.499Z,2.43
2019-04-27T22:47:14.445Z,3.13
2019-04-27T22:49:40.379Z,3.10
2019-04-27T22:52:06.243Z,3.13
2019-04-27T22:54:32.163Z,3.40
2019-04-27T22:57:01.176Z,3.10
2019-04-27T22:59:31.779Z,3.20
2019-04-27T23:02:05.103Z,3.30
2019-04-27T23:04:32.980Z,3.03
2019-04-27T23:07:00.599Z,3.33
2019-04-27T23:09:26.665Z,4.73
2019-04-27T23:11:52.587Z,3.30
2019-04-27T23:14:18.675Z,3.47
2019-04-27T23:16:46.425Z,3.40
2019-04-27T23:19:12.277Z,3.57
2019-04-27T23:21:38.135Z,3.43
2019-04-27T23:24:04.022Z,3.60
2019-04-27T23:26:31.219Z,3.33
2019-04-27T23:29:10.334Z,3.30
2019-04-27T23:31:43.508Z,3.10
2019-04-27T23:34:09.355Z,3.33
2019-04-27T23:36:53.455Z,2.87
2019-04-27T23:39:19.277Z,3.07
2019-04-27T23:41:45.135Z,3.17
2019-04-27T23:44:10.991Z,3.50
2019-04-27T23:46:36.927Z,3.07
2019-04-27T23:49:02.881Z,3.30
2019-04-27T23:51:33.282Z,3.47
2019-04-27T23:53:59.121Z,3.20
2019-04-27T23:56:24.953Z,2.97
2019-04-27T23:58:50.805Z,3.30
